createdAt,value
2019-05-01T00:02:04.098Z,7.42
2019-05-01T00:04:37.226Z,6.92
2019-05-01T00:07:09.801Z,8.00
2019-05-01T00:09:41.101Z,8.08
2019-05-01T00:12:13.157Z,8.13
2019-05-01T00:14:45.239Z,7.80
2019-05-01T00:17:16.805Z,7.90
2019-05-01T00:19:48.385Z,7.90
2019-05-01T00:22:19.989Z,8.73
2019-05-01T00:24:51.675Z,8.33
2019-05-01T00:27:23.665Z,9.50
2019-05-01T00:29:55.082Z,10.13
2019-05-01T00:32:26.915Z,9.53
2019-05-01T00:34:58.707Z,9.83
2019-05-01T00:37:30.740Z,11.05
2019-05-01T00:40:02.949Z,10.32
2019-05-01T00:42:35.126Z,10.15
2019-05-01T00:45:08.567Z,10.53
2019-05-01T00:47:39.976Z,12.03
2019-05-01T00:50:11.928Z,10.65
2019-05-01T00:52:43.897Z,10.63
2019-05-01T00:55:18.054Z,9.88
2019-05-01T00:57:51.258Z,11.28
2019-05-01T01:00:24.256Z,11.73
2019-05-01T01:02:56.250Z,10.82
2019-05-01T01:05:28.402Z,10.13
2019-05-01T01:08:00.401Z,10.43
2019-05-01T01:10:58.652Z,8.90
2019-05-01T01:13:30.572Z,9.38
2019-05-01T01:16:02.633Z,9.63
2019-05-01T01:18:34.516Z,9.28
2019-05-01T01:21:06.327Z,9.13
2019-05-01T01:23:38.709Z,9.20
2019-05-01T01:26:11.163Z,10.43
2019-05-01T01:28:43.389Z,8.80
2019-05-01T01:31:15.364Z,8.55
2019-05-01T01:33:46.889Z,8.78
2019-05-01T01:36:18.173Z,9.48
2019-05-01T01:38:49.834Z,9.08
2019-05-01T01:41:22.087Z,9.20
2019-05-01T01:43:55.139Z,9.18
2019-05-01T01:46:28.778Z,8.93
2019-05-01T01:49:01.301Z,9.38
2019-05-01T01:51:33.282Z,9.25
2019-05-01T01:54:05.634Z,8.78
2019-05-01T01:56:37.680Z,9.18
2019-05-01T01:59:09.747Z,9.40
2019-05-01T02:01:42.948Z,9.03
2019-05-01T02:04:17.348Z,8.75
2019-05-01T02:06:50.171Z,8.05
2019-05-01T02:09:22.170Z,7.67
2019-05-01T02:11:53.694Z,7.80
2019-05-01T02:14:25.683Z,7.45
2019-05-01T02:16:57.669Z,8.88
2019-05-01T02:19:29.431Z,8.20
2019-05-01T02:22:01.490Z,9.45
2019-05-01T02:24:33.745Z,8.33
2019-05-01T02:27:07.100Z,7.85
2019-05-01T02:29:41.972Z,8.45
2019-05-01T02:32:13.946Z,8.45
2019-05-01T02:34:46.739Z,8.85
2019-05-01T02:37:21.157Z,8.28
2019-05-01T02:39:54.159Z,8.53
2019-05-01T02:42:28.503Z,8.73
2019-05-01T02:45:02.676Z,8.43
2019-05-01T02:47:39.633Z,7.90
2019-05-01T02:50:13.126Z,9.35
2019-05-01T02:52:45.773Z,8.80
2019-05-01T02:55:19.376Z,8.75
2019-05-01T02:57:51.465Z,8.93
2019-05-01T03:00:23.414Z,8.75
2019-05-01T03:02:55.809Z,8.93
2019-05-01T03:05:27.722Z,8.75
2019-05-01T03:08:01.129Z,8.60
2019-05-01T03:10:32.785Z,11.33
2019-05-01T03:13:06.131Z,8.90
2019-05-01T03:15:39.579Z,8.20
2019-05-01T03:18:12.778Z,9.10
2019-05-01T03:20:45.226Z,8.55
2019-05-01T03:23:18.299Z,8.83
2019-05-01T03:25:51.433Z,8.70
2019-05-01T03:28:23.521Z,7.95
2019-05-01T03:30:55.351Z,7.90
2019-05-01T03:33:27.326Z,8.23
2019-05-01T03:35:59.327Z,8.03
2019-05-01T03:38:31.757Z,8.15
2019-05-01T03:41:04.699Z,7.58
2019-05-01T03:43:36.713Z,8.20
2019-05-01T03:46:08.714Z,8.33
2019-05-01T03:48:40.933Z,7.58
2019-05-01T03:51:13.193Z,7.50
2019-05-01T03:53:45.420Z,8.25
2019-05-01T03:56:17.763Z,7.28
2019-05-01T03:58:50.248Z,7.55
2019-05-01T04:01:23.444Z,8.28
2019-05-01T04:03:57.075Z,7.80
2019-05-01T04:06:28.966Z,8.38
2019-05-01T04:09:01.395Z,8.70
2019-05-01T04:11:33.566Z,8.60
2019-05-01T04:14:05.657Z,7.67
2019-05-01T04:16:37.400Z,7.95
2019-05-01T04:19:09.185Z,8.68
2019-05-01T04:21:42.247Z,8.65
2019-05-01T04:24:14.451Z,8.90
2019-05-01T04:26:46.324Z,7.67
2019-05-01T04:29:18.189Z,8.10
2019-05-01T04:31:49.867Z,8.43
2019-05-01T04:34:23.325Z,8.23
2019-05-01T04:36:56.132Z,8.35
2019-05-01T04:39:28.037Z,8.65
2019-05-01T04:42:00.331Z,8.35
2019-05-01T04:44:32.112Z,9.25
2019-05-01T04:47:04.275Z,8.83
2019-05-01T04:49:36.358Z,8.30
2019-05-01T04:52:08.483Z,9.08
2019-05-01T04:54:41.768Z,9.15
2019-05-01T04:57:14.046Z,9.20
2019-05-01T04:59:46.327Z,9.15
2019-05-01T05:02:19.890Z,9.20
2019-05-01T05:04:52.109Z,9.20
2019-05-01T05:07:24.348Z,9.33
2019-05-01T05:09:56.099Z,9.65
2019-05-01T05:12:28.965Z,8.85
2019-05-01T05:15:01.999Z,9.80
2019-05-01T05:17:34.104Z,9.10
2019-05-01T05:20:09.646Z,10.18
2019-05-01T05:22:41.671Z,9.63
2019-05-01T05:25:13.304Z,9.13
2019-05-01T05:27:45.766Z,9.75
2019-05-01T05:30:17.303Z,9.85
2019-05-01T05:32:50.931Z,9.20
2019-05-01T05:35:24.641Z,10.23
2019-05-01T05:37:58.347Z,10.20
2019-05-01T05:40:32.814Z,9.55
2019-05-01T05:43:04.915Z,9.98
2019-05-01T05:45:37.222Z,10.20
2019-05-01T05:48:08.881Z,10.65
2019-05-01T05:50:44.212Z,10.00
2019-05-01T05:53:19.133Z,10.15
2019-05-01T05:55:54.267Z,10.45
2019-05-01T05:58:28.758Z,10.25
2019-05-01T06:01:02.355Z,11.65
2019-05-01T06:03:37.498Z,10.53
2019-05-01T06:06:12.377Z,11.05
2019-05-01T06:08:46.676Z,10.68
2019-05-01T06:11:21.836Z,10.80
2019-05-01T06:13:58.976Z,10.95
2019-05-01T06:16:33.013Z,10.50
2019-05-01T06:19:09.680Z,10.65
2019-05-01T06:21:42.586Z,11.22
2019-05-01T06:24:15.940Z,11.73
2019-05-01T06:26:48.158Z,11.78
2019-05-01T06:29:19.717Z,10.72
2019-05-01T06:31:54.000Z,11.38
2019-05-01T06:34:28.316Z,11.55
2019-05-01T06:36:56.939Z,11.85
2019-05-01T06:39:28.708Z,10.98
2019-05-01T06:42:01.183Z,11.43
2019-05-01T06:44:39.193Z,10.88
2019-05-01T06:47:08.050Z,13.03
2019-05-01T06:49:42.464Z,13.72
2019-05-01T06:52:14.902Z,12.68
2019-05-01T06:54:47.788Z,12.75
2019-05-01T06:57:20.685Z,12.35
2019-05-01T06:59:52.796Z,11.50
2019-05-01T07:02:25.454Z,11.57
2019-05-01T07:04:57.425Z,11.28
2019-05-01T07:07:39.674Z,12.25
2019-05-01T07:10:12.005Z,11.75
2019-05-01T07:12:44.556Z,11.33
2019-05-01T07:15:16.762Z,10.95
2019-05-01T07:17:49.018Z,12.18
2019-05-01T07:20:22.399Z,10.90
2019-05-01T07:22:54.747Z,9.68
2019-05-01T07:25:26.365Z,9.23
2019-05-01T07:27:59.648Z,8.93
2019-05-01T07:30:31.581Z,8.45
2019-05-01T07:33:03.492Z,9.15
2019-05-01T07:35:36.763Z,9.28
2019-05-01T07:38:08.944Z,11.18
2019-05-01T07:40:40.985Z,8.80
2019-05-01T07:43:13.096Z,9.05
2019-05-01T07:45:46.135Z,8.35
2019-05-01T07:48:19.651Z,8.70
2019-05-01T07:50:51.286Z,9.10
2019-05-01T07:53:23.849Z,8.18
2019-05-01T07:55:56.005Z,8.18
2019-05-01T07:58:28.060Z,8.48
2019-05-01T08:01:01.424Z,9.08
2019-05-01T08:03:32.994Z,9.95
2019-05-01T08:06:05.015Z,8.60
2019-05-01T08:08:39.722Z,8.88
2019-05-01T08:11:10.353Z,9.00
2019-05-01T08:13:41.559Z,8.60
2019-05-01T08:16:13.188Z,8.33
2019-05-01T08:18:46.567Z,7.97
2019-05-01T08:21:21.131Z,7.97
2019-05-01T08:23:52.695Z,7.95
2019-05-01T08:26:25.174Z,7.83
2019-05-01T08:28:57.626Z,7.67
2019-05-01T08:31:29.242Z,7.83
2019-05-01T08:34:02.421Z,7.30
2019-05-01T08:36:34.833Z,7.30
2019-05-01T08:39:11.386Z,7.55
2019-05-01T08:41:43.097Z,8.15
2019-05-01T08:44:15.060Z,9.85
2019-05-01T08:46:50.937Z,8.50
2019-05-01T08:49:22.402Z,7.25
2019-05-01T08:51:57.947Z,7.37
2019-05-01T08:54:33.564Z,8.60
2019-05-01T08:57:03.394Z,8.05
2019-05-01T08:59:35.640Z,7.47
2019-05-01T09:02:11.012Z,7.10
2019-05-01T09:04:42.460Z,7.90
2019-05-01T09:07:14.693Z,6.60
2019-05-01T09:09:47.443Z,6.78
2019-05-01T09:12:21.778Z,7.22
2019-05-01T09:14:52.976Z,6.72
2019-05-01T09:17:24.632Z,6.80
2019-05-01T09:19:56.525Z,7.05
2019-05-01T09:22:28.335Z,6.22
2019-05-01T09:25:01.888Z,8.13
2019-05-01T09:27:34.826Z,6.67
2019-05-01T09:30:09.116Z,7.55
2019-05-01T09:32:45.871Z,8.38
2019-05-01T09:35:16.173Z,6.95
2019-05-01T09:37:48.310Z,7.15
2019-05-01T09:40:19.984Z,7.00
2019-05-01T09:42:54.733Z,7.30
2019-05-01T09:45:24.359Z,7.60
2019-05-01T09:47:56.282Z,7.70
2019-05-01T09:50:30.444Z,7.70
2019-05-01T09:53:02.607Z,7.35
2019-05-01T09:55:35.096Z,9.60
2019-05-01T09:58:06.795Z,7.37
2019-05-01T10:00:38.493Z,6.47
2019-05-01T10:03:13.118Z,6.85
2019-05-01T10:05:44.194Z,7.35
2019-05-01T10:08:16.464Z,7.45
2019-05-01T10:10:48.328Z,7.85
2019-05-01T10:13:22.553Z,7.78
2019-05-01T10:15:52.800Z,8.10
2019-05-01T10:18:24.413Z,8.05
2019-05-01T10:20:56.370Z,8.23
2019-05-01T10:23:28.388Z,8.88
2019-05-01T10:26:01.317Z,8.20
2019-05-01T10:28:34.123Z,8.55
2019-05-01T10:31:11.374Z,8.78
2019-05-01T10:33:41.237Z,7.70
2019-05-01T10:36:18.712Z,8.13
2019-05-01T10:38:47.572Z,8.10
2019-05-01T10:41:19.610Z,7.97
2019-05-01T10:43:51.635Z,8.10
2019-05-01T10:46:23.980Z,7.62
2019-05-01T10:48:57.268Z,10.13
2019-05-01T10:51:28.713Z,9.53
2019-05-01T10:54:00.015Z,8.63
2019-05-01T10:56:31.555Z,7.62
2019-05-01T10:59:03.104Z,8.05
2019-05-01T11:01:34.290Z,7.55
2019-05-01T11:04:06.232Z,7.85
2019-05-01T11:06:38.012Z,7.97
2019-05-01T11:09:10.288Z,7.12
2019-05-01T11:11:42.254Z,6.83
2019-05-01T11:14:13.815Z,7.47
2019-05-01T11:16:45.000Z,7.60
2019-05-01T11:19:16.541Z,7.85
2019-05-01T11:21:48.409Z,8.25
2019-05-01T11:24:20.095Z,8.50
2019-05-01T11:26:52.189Z,8.15
2019-05-01T11:29:24.345Z,7.87
2019-05-01T11:31:56.349Z,7.75
2019-05-01T11:34:29.603Z,8.15
2019-05-01T11:37:02.518Z,7.78
2019-05-01T11:39:40.273Z,7.85
2019-05-01T11:42:10.506Z,8.45
2019-05-01T11:44:42.455Z,8.73
2019-05-01T11:47:14.497Z,8.00
2019-05-01T11:49:46.518Z,9.68
2019-05-01T11:52:18.388Z,9.10
2019-05-01T11:54:50.551Z,9.10
2019-05-01T11:57:22.627Z,9.00
2019-05-01T11:59:54.877Z,8.88
2019-05-01T12:02:29.742Z,9.13
2019-05-01T12:05:01.855Z,8.78
2019-05-01T12:07:33.711Z,9.63
2019-05-01T12:10:06.069Z,9.48
2019-05-01T12:12:37.551Z,9.68
2019-05-01T12:15:11.953Z,9.50
2019-05-01T12:17:45.159Z,10.35
2019-05-01T12:20:17.159Z,9.48
2019-05-01T12:22:51.341Z,23.65
2019-05-01T12:25:23.915Z,16.40
2019-05-01T12:27:55.218Z,10.98
2019-05-01T12:30:27.017Z,9.35
2019-05-01T12:32:58.522Z,8.65
2019-05-01T12:35:30.322Z,8.88
2019-05-01T12:38:03.372Z,8.80
2019-05-01T12:40:35.247Z,9.73
2019-05-01T12:43:07.243Z,8.78
2019-05-01T12:45:38.857Z,9.15
2019-05-01T12:48:10.495Z,9.78
2019-05-01T12:50:42.192Z,10.10
2019-05-01T12:53:14.857Z,9.60
2019-05-01T12:55:48.255Z,10.10
2019-05-01T12:58:20.917Z,9.95
2019-05-01T13:00:55.104Z,11.53
2019-05-01T13:03:28.125Z,11.45
2019-05-01T13:06:00.175Z,12.78
2019-05-01T13:08:32.238Z,12.82
2019-05-01T13:11:06.929Z,12.33
2019-05-01T13:13:40.023Z,12.63
2019-05-01T13:16:12.308Z,12.63
2019-05-01T13:18:44.279Z,11.50
2019-05-01T13:21:16.388Z,11.90
2019-05-01T13:23:48.522Z,10.95
2019-05-01T13:26:21.613Z,10.65
2019-05-01T13:28:55.903Z,10.53
2019-05-01T13:31:28.699Z,9.33
2019-05-01T13:34:00.739Z,9.30
2019-05-01T13:36:32.674Z,9.00
2019-05-01T13:39:04.794Z,9.20
2019-05-01T13:41:35.900Z,8.53
2019-05-01T13:44:07.143Z,7.83
2019-05-01T13:46:39.502Z,9.25
2019-05-01T13:49:11.419Z,9.20
2019-05-01T13:51:43.372Z,9.00
2019-05-01T13:54:15.108Z,11.55
2019-05-01T13:56:46.559Z,9.05
2019-05-01T13:59:18.052Z,7.90
2019-05-01T14:01:49.947Z,7.62
2019-05-01T14:04:22.780Z,7.95
2019-05-01T14:06:57.134Z,7.70
2019-05-01T14:09:30.019Z,7.58
2019-05-01T14:12:02.210Z,7.90
2019-05-01T14:14:37.737Z,7.90
2019-05-01T14:17:09.492Z,7.95
2019-05-01T14:19:42.545Z,7.50
2019-05-01T14:22:21.744Z,7.17
2019-05-01T14:24:54.859Z,7.80
2019-05-01T14:27:26.241Z,7.83
2019-05-01T14:29:59.225Z,7.72
2019-05-01T14:32:30.591Z,7.55
2019-05-01T14:35:01.952Z,7.85
2019-05-01T14:37:35.281Z,7.90
2019-05-01T14:40:07.870Z,7.85
2019-05-01T14:42:39.835Z,7.85
2019-05-01T14:45:12.500Z,8.08
2019-05-01T14:47:44.762Z,8.35
2019-05-01T14:50:17.080Z,7.95
2019-05-01T14:52:49.185Z,7.95
2019-05-01T14:55:21.457Z,8.48
2019-05-01T14:57:54.622Z,8.18
2019-05-01T15:00:27.061Z,8.25
2019-05-01T15:02:58.548Z,8.15
2019-05-01T15:05:31.277Z,8.28
2019-05-01T15:08:02.982Z,8.83
2019-05-01T15:10:34.642Z,9.15
2019-05-01T15:13:07.335Z,9.55
2019-05-01T15:15:40.509Z,8.95
2019-05-01T15:18:13.706Z,9.43
2019-05-01T15:20:49.258Z,9.68
2019-05-01T15:23:21.094Z,10.00
2019-05-01T15:25:52.513Z,9.00
2019-05-01T15:28:25.684Z,9.70
2019-05-01T15:30:57.640Z,8.45
2019-05-01T15:33:29.625Z,7.87
2019-05-01T15:36:01.690Z,7.83
2019-05-01T15:38:33.814Z,7.55
2019-05-01T15:41:05.703Z,6.25
2019-05-01T15:43:38.693Z,7.20
2019-05-01T15:46:09.999Z,6.35
2019-05-01T15:48:44.868Z,6.30
2019-05-01T15:51:16.970Z,6.37
2019-05-01T15:53:49.178Z,5.80
2019-05-01T15:56:25.702Z,5.70
2019-05-01T15:58:56.342Z,5.50
2019-05-01T16:01:28.030Z,5.15
2019-05-01T16:03:59.676Z,5.30
2019-05-01T16:06:33.575Z,4.85
2019-05-01T16:09:07.298Z,4.58
2019-05-01T16:11:40.559Z,4.20
2019-05-01T16:14:11.702Z,4.30
2019-05-01T16:16:43.804Z,4.45
2019-05-01T16:19:15.916Z,4.35
2019-05-01T16:21:47.955Z,4.78
2019-05-01T16:24:20.399Z,4.35
2019-05-01T16:26:53.430Z,4.62
2019-05-01T16:29:25.824Z,4.42
2019-05-01T16:31:57.999Z,4.08
2019-05-01T16:34:30.025Z,4.40
2019-05-01T16:37:02.183Z,4.42
2019-05-01T16:39:35.427Z,4.25
2019-05-01T16:42:07.330Z,4.58
2019-05-01T16:44:38.902Z,3.87
2019-05-01T16:47:11.606Z,4.50
2019-05-01T16:49:43.356Z,3.92
2019-05-01T16:52:15.227Z,4.25
2019-05-01T16:54:58.736Z,4.08
2019-05-01T16:57:22.265Z,5.10
2019-05-01T16:59:54.170Z,5.20
2019-05-01T17:02:26.986Z,5.35
2019-05-01T17:04:57.870Z,5.42
2019-05-01T17:07:30.802Z,4.47
2019-05-01T17:10:02.425Z,4.85
2019-05-01T17:12:38.878Z,4.53
2019-05-01T17:15:11.298Z,4.20
2019-05-01T17:17:43.313Z,4.37
2019-05-01T17:20:15.024Z,4.60
2019-05-01T17:22:50.735Z,5.00
2019-05-01T17:25:20.439Z,4.62
2019-05-01T17:27:52.353Z,4.60
2019-05-01T17:30:27.419Z,5.00
2019-05-01T17:33:00.841Z,5.55
2019-05-01T17:35:36.744Z,5.22
2019-05-01T17:38:05.998Z,5.15
2019-05-01T17:40:37.889Z,5.53
2019-05-01T17:43:13.436Z,5.67
2019-05-01T17:45:43.090Z,5.20
2019-05-01T17:48:14.972Z,5.33
2019-05-01T17:50:46.527Z,5.20
2019-05-01T17:53:17.591Z,5.03
2019-05-01T17:55:48.902Z,5.17
2019-05-01T17:58:20.500Z,5.30
2019-05-01T18:00:53.439Z,5.53
2019-05-01T18:03:25.545Z,6.10
2019-05-01T18:06:01.328Z,6.17
2019-05-01T18:08:31.378Z,6.08
2019-05-01T18:11:02.684Z,6.30
2019-05-01T18:13:33.871Z,6.30
2019-05-01T18:16:05.374Z,6.55
2019-05-01T18:18:37.214Z,6.10
2019-05-01T18:21:10.117Z,6.15
2019-05-01T18:23:47.583Z,5.70
2019-05-01T18:26:17.773Z,4.72
2019-05-01T18:28:51.022Z,4.87
2019-05-01T18:31:27.910Z,4.22
2019-05-01T18:34:01.738Z,4.55
2019-05-01T18:36:31.331Z,4.70
2019-05-01T18:39:15.723Z,4.30
2019-05-01T18:41:38.790Z,4.03
2019-05-01T18:44:11.306Z,4.40
2019-05-01T18:46:43.460Z,4.05
2019-05-01T18:49:15.922Z,4.62
2019-05-01T18:51:47.164Z,4.33
2019-05-01T18:54:19.123Z,3.92
2019-05-01T18:56:51.118Z,4.03
2019-05-01T18:59:22.987Z,4.55
2019-05-01T19:01:55.834Z,4.70
2019-05-01T19:04:27.195Z,4.70
2019-05-01T19:06:58.606Z,4.30
2019-05-01T19:09:30.602Z,4.75
2019-05-01T19:12:02.972Z,4.70
2019-05-01T19:14:42.133Z,5.30
2019-05-01T19:17:08.458Z,4.80
2019-05-01T19:19:40.355Z,4.90
2019-05-01T19:22:11.911Z,4.47
2019-05-01T19:24:43.170Z,5.10
2019-05-01T19:27:18.903Z,4.85
2019-05-01T19:29:48.000Z,5.30
2019-05-01T19:32:20.315Z,5.05
2019-05-01T19:34:53.759Z,5.10
2019-05-01T19:37:29.271Z,5.20
2019-05-01T19:39:58.960Z,5.22
2019-05-01T19:42:30.915Z,5.03
2019-05-01T19:45:02.132Z,5.08
2019-05-01T19:47:35.873Z,4.95
2019-05-01T19:50:10.907Z,5.75
2019-05-01T19:52:43.814Z,5.17
2019-05-01T19:55:16.107Z,5.70
2019-05-01T19:57:48.244Z,5.72
2019-05-01T20:00:22.638Z,5.45
2019-05-01T20:02:59.083Z,6.60
2019-05-01T20:05:29.033Z,5.80
2019-05-01T20:08:00.277Z,5.60
2019-05-01T20:10:32.630Z,5.17
2019-05-01T20:13:07.132Z,5.65
2019-05-01T20:15:36.835Z,4.78
2019-05-01T20:18:08.088Z,5.20
2019-05-01T20:20:39.867Z,5.05
2019-05-01T20:23:11.618Z,4.97
2019-05-01T20:25:43.644Z,5.30
2019-05-01T20:28:15.103Z,5.00
2019-05-01T20:30:49.380Z,5.08
2019-05-01T20:33:19.433Z,4.90
2019-05-01T20:35:51.490Z,4.65
2019-05-01T20:38:23.056Z,5.22
2019-05-01T20:40:54.920Z,6.47
2019-05-01T20:43:26.717Z,5.22
2019-05-01T20:45:58.922Z,5.33
2019-05-01T20:48:31.101Z,5.90
2019-05-01T20:51:05.662Z,5.87
2019-05-01T20:53:37.519Z,6.55
2019-05-01T20:56:10.483Z,6.22
2019-05-01T20:58:42.498Z,5.97
2019-05-01T21:01:14.262Z,6.35
2019-05-01T21:03:47.393Z,7.15
2019-05-01T21:06:20.391Z,6.53
2019-05-01T21:08:53.461Z,6.85
2019-05-01T21:11:27.656Z,6.95
2019-05-01T21:14:15.589Z,6.45
2019-05-01T21:16:32.939Z,6.75
2019-05-01T21:19:06.120Z,6.08
2019-05-01T21:21:38.523Z,6.35
2019-05-01T21:24:10.351Z,5.83
2019-05-01T21:26:43.359Z,6.75
2019-05-01T21:29:15.464Z,6.15
2019-05-01T21:31:46.904Z,6.58
2019-05-01T21:34:18.299Z,6.33
2019-05-01T21:36:52.853Z,6.30
2019-05-01T21:39:24.417Z,6.60
2019-05-01T21:41:55.458Z,6.75
2019-05-01T21:44:27.229Z,7.20
2019-05-01T21:46:58.962Z,7.65
2019-05-01T21:49:33.145Z,6.97
2019-05-01T21:52:06.967Z,6.80
2019-05-01T21:54:37.131Z,7.37
2019-05-01T21:57:11.935Z,6.85
2019-05-01T21:59:44.712Z,6.75
2019-05-01T22:02:15.659Z,7.78
2019-05-01T22:04:47.500Z,8.58
2019-05-01T22:07:23.815Z,7.92
2019-05-01T22:09:53.132Z,7.65
2019-05-01T22:12:25.184Z,8.03
2019-05-01T22:14:58.557Z,8.18
2019-05-01T22:17:32.099Z,7.92
2019-05-01T22:20:04.947Z,8.08
2019-05-01T22:22:38.869Z,7.87
2019-05-01T22:25:11.819Z,8.38
2019-05-01T22:27:44.493Z,9.25
2019-05-01T22:30:17.705Z,8.98
2019-05-01T22:32:50.738Z,8.63
2019-05-01T22:35:23.738Z,10.35
2019-05-01T22:37:55.762Z,9.40
2019-05-01T22:40:28.482Z,9.38
2019-05-01T22:43:00.418Z,7.80
2019-05-01T22:45:32.406Z,8.25
2019-05-01T22:48:03.995Z,8.53
2019-05-01T22:50:35.298Z,7.60
2019-05-01T22:53:08.014Z,7.45
2019-05-01T22:55:40.005Z,7.70
2019-05-01T22:58:12.838Z,8.25
2019-05-01T23:00:46.092Z,8.15
2019-05-01T23:03:23.237Z,8.20
2019-05-01T23:05:55.471Z,8.58
2019-05-01T23:08:27.707Z,8.78
2019-05-01T23:10:59.894Z,8.80
2019-05-01T23:13:31.928Z,8.63
2019-05-01T23:16:03.929Z,9.20
2019-05-01T23:18:35.727Z,10.00
2019-05-01T23:21:09.923Z,9.05
2019-05-01T23:23:42.097Z,8.90
2019-05-01T23:26:16.655Z,8.83
2019-05-01T23:28:54.419Z,8.40
2019-05-01T23:31:24.349Z,9.28
2019-05-01T23:33:55.723Z,8.53
2019-05-01T23:36:27.277Z,9.10
2019-05-01T23:39:01.006Z,8.20
2019-05-01T23:41:45.242Z,8.48
2019-05-01T23:44:05.409Z,9.15
2019-05-01T23:46:37.192Z,9.15
2019-05-01T23:49:09.282Z,8.93
2019-05-01T23:51:40.917Z,8.65
2019-05-01T23:54:12.595Z,8.60
2019-05-01T23:56:44.328Z,9.05
2019-05-01T23:59:16.200Z,9.43
